Time,TemperatureF,DewpointF,PressureIn,WindDirection,WindDirectionDegrees,WindSpeedMPH,WindSpeedGustMPH,Humidity,HourlyPrecipIn,Conditions,Clouds,dailyrainin,SolarRadiationWatts/m^2,SoftwareType,DateUTC
2013-03-13 00:03:00,38.0,35.0,-100.00,WSW,244,4.0,11.0,88,0.00,,,1.11,0.000000,,2013-03-13 04:03:00,
2013-03-13 00:13:00,38.0,35.0,-100.00,WSW,244,4.0,11.0,88,0.00,,,1.11,0.000000,,2013-03-13 04:13:00,
2013-03-13 00:32:00,37.0,34.0,-100.00,South,181,2.0,8.0,90,0.00,,,1.11,0.000000,,2013-03-13 04:32:00,
2013-03-13 00:43:00,37.0,34.0,-100.00,South,181,2.0,8.0,90,0.00,,,1.11,0.000000,,2013-03-13 04:43:00,
2013-03-13 00:53:00,37.0,34.0,-100.00,South,181,2.0,8.0,90,0.00,,,1.11,0.000000,,2013-03-13 04:53:00,
2013-03-13 01:02:00,37.0,34.0,-100.00,South,181,2.0,8.0,90,0.00,,,1.11,0.000000,,2013-03-13 05:02:00,
2013-03-13 01:13:00,37.0,34.0,-100.00,South,181,2.0,8.0,90,0.00,,,1.11,0.000000,,2013-03-13 05:13:00,
2013-03-13 01:33:00,36.0,34.0,-100.00,SE,140,2.0,6.0,92,0.00,,,1.11,0.000000,,2013-03-13 05:33:00,
2013-03-13 01:43:00,36.0,34.0,-100.00,SE,140,2.0,6.0,92,0.00,,,1.11,0.000000,,2013-03-13 05:43:00,
2013-03-13 01:53:00,36.0,34.0,-100.00,SE,140,2.0,6.0,92,0.00,,,1.11,0.000000,,2013-03-13 05:53:00,
2013-03-13 02:02:00,36.0,34.0,-100.00,SE,140,2.0,6.0,92,0.00,,,1.11,0.000000,,2013-03-13 06:02:00,
2013-03-13 02:13:00,36.0,34.0,-100.00,SE,140,2.0,6.0,92,0.00,,,1.11,0.000000,,2013-03-13 06:13:00,
2013-03-13 02:33:00,36.0,33.0,-100.00,SSW,200,2.0,7.0,89,0.00,,,1.11,0.000000,,2013-03-13 06:33:00,
2013-03-13 02:43:00,36.0,33.0,-100.00,SSW,200,2.0,7.0,89,0.00,,,1.11,0.000000,,2013-03-13 06:43:00,
2013-03-13 02:53:00,36.0,33.0,-100.00,SSW,200,2.0,7.0,89,0.00,,,1.11,0.000000,,2013-03-13 06:53:00,
2013-03-13 03:03:00,36.0,33.0,-100.00,SSW,200,2.0,7.0,89,0.00,,,1.11,0.000000,,2013-03-13 07:03:00,
2013-03-13 03:12:00,36.0,33.0,-100.00,SSW,200,2.0,7.0,89,0.00,,,1.11,0.000000,,2013-03-13 07:12:00,
2013-03-13 03:43:00,35.0,33.0,-100.00,NNW,340,3.0,8.0,93,0.00,,,1.11,0.000000,,2013-03-13 07:43:00,
2013-03-13 03:53:00,35.0,33.0,-100.00,NNW,340,3.0,8.0,93,0.00,,,1.11,0.000000,,2013-03-13 07:53:00,
2013-03-13 04:03:00,35.0,33.0,-100.00,NNW,340,3.0,8.0,93,0.00,,,1.11,0.000000,,2013-03-13 08:03:00,
2013-03-13 04:12:00,35.0,33.0,-100.00,NNW,340,3.0,8.0,93,0.00,,,1.11,0.000000,,2013-03-13 08:12:00,
2013-03-13 04:43:00,34.0,32.0,-100.00,SE,126,2.0,9.0,93,0.00,,,1.11,0.000000,,2013-03-13 08:43:00,
2013-03-13 04:54:00,34.0,32.0,-100.00,SE,126,2.0,9.0,93,0.00,,,1.11,0.000000,,2013-03-13 08:54:00,
2013-03-13 05:02:00,34.0,32.0,-100.00,SE,126,2.0,9.0,93,0.00,,,1.11,0.000000,,2013-03-13 09:02:00,
2013-03-13 05:12:00,34.0,32.0,-100.00,SE,126,2.0,9.0,93,0.00,,,1.11,0.000000,,2013-03-13 09:12:00,
2013-03-13 05:42:00,36.0,30.0,-100.00,NNE,14,2.0,7.0,78,0.00,,,1.06,0.000000,,2013-03-13 09:42:00,
2013-03-13 05:52:00,36.0,30.0,-100.00,NNE,14,2.0,7.0,78,0.00,,,1.06,0.000000,,2013-03-13 09:52:00,
2013-03-13 06:02:00,36.0,30.0,-100.00,NNE,14,2.0,7.0,78,0.00,,,1.06,0.000000,,2013-03-13 10:02:00,
2013-03-13 06:12:00,36.0,30.0,-100.00,NNE,14,2.0,7.0,78,0.00,,,1.06,0.000000,,2013-03-13 10:12:00,
2013-03-13 06:42:00,35.0,29.0,-100.00,NE,52,3.0,6.0,80,0.00,,,0.96,0.000000,,2013-03-13 10:42:00,
2013-03-13 06:52:00,35.0,29.0,-100.00,NE,52,3.0,6.0,80,0.00,,,0.96,0.000000,,2013-03-13 10:52:00,
2013-03-13 07:02:00,35.0,29.0,-100.00,NE,52,3.0,6.0,80,0.00,,,0.96,0.000000,,2013-03-13 11:02:00,
2013-03-13 07:13:00,35.0,29.0,-100.00,NE,52,3.0,6.0,80,0.00,,,0.96,0.000000,,2013-03-13 11:13:00,
2013-03-13 07:32:00,35.0,31.0,-100.00,NE,37,3.0,5.0,86,0.00,,,0.88,1.000000,,2013-03-13 11:32:00,
2013-03-13 07:42:00,35.0,31.0,-100.00,NE,37,3.0,5.0,86,0.00,,,0.88,1.000000,,2013-03-13 11:42:00,
2013-03-13 07:53:00,35.0,31.0,-100.00,NE,37,3.0,5.0,86,0.00,,,0.88,1.000000,,2013-03-13 11:53:00,
2013-03-13 08:02:00,35.0,31.0,-100.00,NE,37,3.0,5.0,86,0.00,,,0.88,1.000000,,2013-03-13 12:02:00,
2013-03-13 08:12:00,35.0,31.0,-100.00,NE,37,3.0,5.0,86,0.00,,,0.88,1.000000,,2013-03-13 12:12:00,
2013-03-13 08:42:00,36.0,31.0,-100.00,NNE,17,2.0,5.0,82,0.00,,,0.85,33.000000,,2013-03-13 12:42:00,
2013-03-13 08:53:00,36.0,31.0,-100.00,NNE,17,2.0,5.0,82,0.00,,,0.85,33.000000,,2013-03-13 12:53:00,
2013-03-13 09:02:00,36.0,31.0,-100.00,NNE,17,2.0,5.0,82,0.00,,,0.85,33.000000,,2013-03-13 13:02:00,
2013-03-13 09:12:00,36.0,31.0,-100.00,NNE,17,2.0,5.0,82,0.00,,,0.85,33.000000,,2013-03-13 13:12:00,
2013-03-13 09:33:00,38.0,30.0,-100.00,NW,321,4.0,8.0,73,0.00,,,0.81,119.000000,,2013-03-13 13:33:00,
2013-03-13 09:43:00,38.0,30.0,-100.00,NW,321,4.0,8.0,73,0.00,,,0.81,119.000000,,2013-03-13 13:43:00,
2013-03-13 09:53:00,38.0,30.0,-100.00,NW,321,4.0,8.0,73,0.00,,,0.81,119.000000,,2013-03-13 13:53:00,
2013-03-13 10:03:00,38.0,30.0,-100.00,NW,321,4.0,8.0,73,0.00,,,0.81,119.000000,,2013-03-13 14:03:00,
2013-03-13 10:12:00,38.0,30.0,-100.00,NW,321,4.0,8.0,73,0.00,,,0.81,119.000000,,2013-03-13 14:12:00,
2013-03-13 10:53:00,40.0,30.0,-100.00,NW,319,5.0,10.0,68,0.00,,,0.79,242.000000,,2013-03-13 14:53:00,
2013-03-13 11:03:00,40.0,30.0,-100.00,NW,319,5.0,10.0,68,0.00,,,0.79,242.000000,,2013-03-13 15:03:00,
2013-03-13 11:12:00,40.0,30.0,-100.00,NW,319,5.0,10.0,68,0.00,,,0.79,242.000000,,2013-03-13 15:12:00,
2013-03-13 11:43:00,38.0,28.0,-100.00,WSW,255,6.0,12.0,66,0.00,,,0.74,183.000000,,2013-03-13 15:43:00,
2013-03-13 11:53:00,38.0,28.0,-100.00,WSW,255,6.0,12.0,66,0.00,,,0.74,183.000000,,2013-03-13 15:53:00,
2013-03-13 12:03:00,38.0,28.0,-100.00,WSW,255,6.0,12.0,66,0.00,,,0.74,183.000000,,2013-03-13 16:03:00,
2013-03-13 12:12:00,38.0,28.0,-100.00,WSW,255,6.0,12.0,66,0.00,,,0.74,183.000000,,2013-03-13 16:12:00,
2013-03-13 12:42:00,39.0,24.0,-100.00,SW,228,5.0,12.0,54,0.00,,,0.69,189.000000,,2013-03-13 16:42:00,
2013-03-13 12:52:00,39.0,24.0,-100.00,SW,228,5.0,12.0,54,0.00,,,0.69,189.000000,,2013-03-13 16:52:00,
2013-03-13 13:03:00,39.0,24.0,-100.00,SW,228,5.0,12.0,54,0.00,,,0.69,189.000000,,2013-03-13 17:03:00,
2013-03-13 13:12:00,39.0,24.0,-100.00,SW,228,5.0,12.0,54,0.00,,,0.69,189.000000,,2013-03-13 17:12:00,
2013-03-13 13:33:00,42.0,23.0,-100.00,WSW,237,9.0,14.0,47,0.00,,,0.64,437.000000,,2013-03-13 17:33:00,
2013-03-13 13:42:00,42.0,23.0,-100.00,WSW,237,9.0,14.0,47,0.00,,,0.64,437.000000,,2013-03-13 17:42:00,
2013-03-13 13:53:00,42.0,23.0,-100.00,WSW,237,9.0,14.0,47,0.00,,,0.64,437.000000,,2013-03-13 17:53:00,
2013-03-13 14:03:00,42.0,23.0,-100.00,WSW,237,9.0,14.0,47,0.00,,,0.64,437.000000,,2013-03-13 18:03:00,
2013-03-13 14:12:00,42.0,23.0,-100.00,WSW,237,9.0,14.0,47,0.00,,,0.64,437.000000,,2013-03-13 18:12:00,
2013-03-13 14:43:00,42.0,21.0,-100.00,WSW,250,8.0,16.0,43,0.00,,,0.56,352.000000,,2013-03-13 18:43:00,
2013-03-13 14:52:00,42.0,21.0,-100.00,WSW,250,8.0,16.0,43,0.00,,,0.56,352.000000,,2013-03-13 18:52:00,
2013-03-13 15:03:00,42.0,21.0,-100.00,WSW,250,8.0,16.0,43,0.00,,,0.56,352.000000,,2013-03-13 19:03:00,
2013-03-13 15:12:00,42.0,21.0,-100.00,WSW,250,8.0,16.0,43,0.00,,,0.56,352.000000,,2013-03-13 19:12:00,
2013-03-13 15:43:00,43.0,22.0,-100.00,WSW,257,6.0,17.0,42,0.00,,,0.48,419.000000,,2013-03-13 19:43:00,
2013-03-13 15:53:00,43.0,22.0,-100.00,WSW,257,6.0,17.0,42,0.00,,,0.48,419.000000,,2013-03-13 19:53:00,
2013-03-13 16:02:00,43.0,22.0,-100.00,WSW,257,6.0,17.0,42,0.00,,,0.48,419.000000,,2013-03-13 20:02:00,
2013-03-13 16:12:00,43.0,22.0,-100.00,WSW,257,6.0,17.0,42,0.00,,,0.48,419.000000,,2013-03-13 20:12:00,
2013-03-13 16:33:00,43.0,21.0,-100.00,NNW,330,6.0,14.0,41,0.00,,,0.38,178.000000,,2013-03-13 20:33:00,
2013-03-13 16:42:00,43.0,21.0,-100.00,NNW,330,6.0,14.0,41,0.00,,,0.38,178.000000,,2013-03-13 20:42:00,
2013-03-13 16:52:00,43.0,21.0,-100.00,NNW,330,6.0,14.0,41,0.00,,,0.38,178.000000,,2013-03-13 20:52:00,
2013-03-13 17:02:00,43.0,21.0,-100.00,NNW,330,6.0,14.0,41,0.00,,,0.38,178.000000,,2013-03-13 21:02:00,
2013-03-13 17:12:00,43.0,21.0,-100.00,NNW,330,6.0,14.0,41,0.00,,,0.38,178.000000,,2013-03-13 21:12:00,
2013-03-13 17:42:00,42.0,23.0,-100.00,WSW,238,10.0,17.0,46,0.00,,,0.22,260.000000,,2013-03-13 21:42:00,
2013-03-13 17:52:00,42.0,23.0,-100.00,WSW,238,10.0,17.0,46,0.00,,,0.22,260.000000,,2013-03-13 21:52:00,
2013-03-13 18:02:00,42.0,23.0,-100.00,WSW,238,10.0,17.0,46,0.00,,,0.22,260.000000,,2013-03-13 22:02:00,
2013-03-13 18:12:00,42.0,23.0,-100.00,WSW,238,10.0,17.0,46,0.00,,,0.22,260.000000,,2013-03-13 22:12:00,
2013-03-13 18:42:00,41.0,16.0,-100.00,WSW,244,6.0,14.0,36,0.00,,,0.09,143.000000,,2013-03-13 22:42:00,
2013-03-13 18:52:00,41.0,16.0,-100.00,WSW,244,6.0,14.0,36,0.00,,,0.09,143.000000,,2013-03-13 22:52:00,
2013-03-13 19:02:00,41.0,16.0,-100.00,WSW,244,6.0,14.0,36,0.00,,,0.09,143.000000,,2013-03-13 23:02:00,
2013-03-13 19:12:00,41.0,16.0,-100.00,WSW,244,6.0,14.0,36,0.00,,,0.09,143.000000,,2013-03-13 23:12:00,
2013-03-13 19:43:00,34.0,20.0,-100.00,East,95,1.0,10.0,57,0.00,,,0.06,17.000000,,2013-03-13 23:43:00,
2013-03-13 19:52:00,34.0,20.0,-100.00,East,95,1.0,10.0,57,0.00,,,0.06,17.000000,,2013-03-13 23:52:00,
2013-03-13 20:02:00,34.0,20.0,-100.00,East,95,1.0,10.0,57,0.00,,,0.06,17.000000,,2013-03-14 00:02:00,
2013-03-13 20:13:00,34.0,20.0,-100.00,East,95,1.0,10.0,57,0.00,,,0.06,17.000000,,2013-03-14 00:13:00,
2013-03-13 20:33:00,28.0,22.0,-100.00,NW,310,0.0,2.0,77,0.00,,,0.04,0.000000,,2013-03-14 00:33:00,
2013-03-13 20:42:00,28.0,22.0,-100.00,NW,310,0.0,2.0,77,0.00,,,0.04,0.000000,,2013-03-14 00:42:00,
2013-03-13 20:52:00,28.0,22.0,-100.00,NW,310,0.0,2.0,77,0.00,,,0.04,0.000000,,2013-03-14 00:52:00,
2013-03-13 21:03:00,28.0,22.0,-100.00,NW,310,0.0,2.0,77,0.00,,,0.04,0.000000,,2013-03-14 01:03:00,
2013-03-13 21:12:00,28.0,22.0,-100.00,NW,310,0.0,2.0,77,0.00,,,0.04,0.000000,,2013-03-14 01:12:00,
2013-03-13 21:33:00,28.0,23.0,-100.00,NE,44,1.0,4.0,82,0.00,,,0.01,0.000000,,2013-03-14 01:33:00,
2013-03-13 21:42:00,28.0,23.0,-100.00,NE,44,1.0,4.0,82,0.00,,,0.01,0.000000,,2013-03-14 01:42:00,
2013-03-13 21:53:00,28.0,23.0,-100.00,NE,44,1.0,4.0,82,0.00,,,0.01,0.000000,,2013-03-14 01:53:00,
2013-03-13 22:02:00,28.0,23.0,-100.00,NE,44,1.0,4.0,82,0.00,,,0.01,0.000000,,2013-03-14 02:02:00,
2013-03-13 22:12:00,28.0,23.0,-100.00,NE,44,1.0,4.0,82,0.00,,,0.01,0.000000,,2013-03-14 02:12:00,
2013-03-13 23:02:00,35.0,20.0,-100.00,WSW,252,7.0,15.0,53,0.00,,,0.00,0.000000,,2013-03-14 03:02:00,
2013-03-13 23:12:00,35.0,20.0,-100.00,WSW,252,7.0,15.0,53,0.00,,,0.00,0.000000,,2013-03-14 03:12:00,
2013-03-13 23:33:00,34.0,23.0,-100.00,West,276,4.0,8.0,63,0.00,,,0.00,0.000000,,2013-03-14 03:33:00,
2013-03-13 23:42:00,34.0,23.0,-100.00,West,276,4.0,8.0,63,0.00,,,0.00,0.000000,,2013-03-14 03:42:00,
2013-03-13 23:53:00,34.0,23.0,-100.00,West,276,4.0,8.0,63,0.00,,,0.00,0.000000,,2013-03-14 03:53:00,